Time;durP1;ratioP1;P1;durP2;ratioP2;P2;SDS_P1;SDS_P2;PMS_P1;PMS_P2;Temp;Humidity;BMP_temperature;BMP_pressure;BME280_temperature;BME280_humidity;BME280_pressure;Samples;Min_cycle;Max_cycle;Signal;HPM_P1;HPM_P2
2020/12/25 00:01:45;;;;;;;7.10;4.35;;;;;;;7.21;68.97;98045.45;252058;1132;114365;-70
2020/12/25 00:06:48;;;;;;;6.53;4.40;;;;;;;7.07;68.35;98049.83;251868;1135;114303;-70
2020/12/25 00:11:51;;;;;;;6.93;5.07;;;;;;;6.97;68.13;98061.09;251986;1133;114574;-70
2020/12/25 00:16:53;;;;;;;7.85;5.70;;;;;;;6.90;67.71;98065.07;251893;1134;114574;-65
2020/12/25 00:21:56;;;;;;;9.13;5.70;;;;;;;6.73;68.62;98077.55;251843;1135;114647;-67
2020/12/25 00:26:59;;;;;;;6.35;5.12;;;;;;;6.65;68.71;98106.23;251887;1134;114149;-67
2020/12/25 00:32:01;;;;;;;7.80;4.63;;;;;;;6.52;68.48;98111.44;251634;1134;114578;-67
2020/12/25 00:37:03;;;;;;;8.50;3.73;;;;;;;6.44;68.73;98110.19;251946;1135;114597;-67
2020/12/25 00:42:06;;;;;;;5.93;3.60;;;;;;;6.38;68.87;98121.95;251891;1134;114465;-67
2020/12/25 00:47:09;;;;;;;4.37;3.10;;;;;;;6.36;68.35;98126.50;251889;1135;115863;-68
2020/12/25 00:52:11;;;;;;;3.45;2.80;;;;;;;6.29;68.84;98133.09;246495;1132;114672;-68
2020/12/25 00:57:14;;;;;;;7.67;3.10;;;;;;;6.24;67.96;98143.08;249304;1135;114572;-67
2020/12/25 01:02:39;;;;;;;5.47;3.70;;;;;;;6.22;67.91;98140.53;251813;1134;114359;-67
2020/12/25 01:07:41;;;;;;;5.85;4.37;;;;;;;6.18;67.67;98136.34;251864;1133;114744;-67
2020/12/25 01:12:44;;;;;;;6.10;4.47;;;;;;;6.16;68.06;98147.02;251593;1134;115654;-67
2020/12/25 01:17:47;;;;;;;6.58;4.75;;;;;;;6.14;68.61;98151.53;251603;1135;114578;-68
2020/12/25 01:22:49;;;;;;;8.77;5.50;;;;;;;6.16;68.58;98157.58;251716;1135;114862;-68
2020/12/25 01:27:51;;;;;;;8.27;5.60;;;;;;;6.24;68.21;98162.41;251891;1134;114469;-69
2020/12/25 01:32:54;;;;;;;7.25;5.53;;;;;;;6.30;68.93;98162.06;251934;1133;115095;-69
2020/12/25 01:37:56;;;;;;;7.40;5.70;;;;;;;6.27;68.38;98166.67;251744;1134;114632;-69
2020/12/25 01:42:59;;;;;;;7.93;6.23;;;;;;;6.25;68.73;98171.18;251735;1134;115399;-64
2020/12/25 01:48:01;;;;;;;8.77;6.10;;;;;;;6.22;67.98;98171.39;251526;1134;114610;-67
2020/12/25 01:53:08;;;;;;;7.67;6.10;;;;;;;6.15;68.06;98192.03;251662;1133;114559;-65
2020/12/25 01:58:11;;;;;;;6.42;4.72;;;;;;;6.11;68.86;98185.20;251558;1134;115234;-70
2020/12/25 02:03:16;;;;;;;7.37;5.70;;;;;;;6.06;68.26;98182.83;251623;1135;114712;-65
2020/12/25 02:08:19;;;;;;;8.20;6.35;;;;;;;6.07;69.14;98183.67;252082;1139;114712;-67
2020/12/25 02:13:21;;;;;;;9.13;6.05;;;;;;;6.02;69.21;98183.95;251807;1134;114842;-65
2020/12/25 02:18:32;;;;;;;9.23;6.20;;;;;;;6.01;68.42;98194.59;251410;1134;114281;-65
2020/12/25 02:23:34;;;;;;;11.03;6.75;;;;;;;6.00;68.65;98196.38;251779;1133;114055;-67
2020/12/25 02:28:37;;;;;;;8.83;7.17;;;;;;;5.93;69.54;98209.08;251962;1136;114796;-67
2020/12/25 02:33:39;;;;;;;9.50;6.80;;;;;;;5.93;68.82;98216.16;247379;1134;114707;-66
2020/12/25 02:38:41;;;;;;;10.83;6.30;;;;;;;5.98;69.40;98226.45;252102;1135;114346;-66
2020/12/25 02:43:45;;;;;;;11.07;7.90;;;;;;;6.03;69.28;98213.84;251864;1135;114927;-65
2020/12/25 02:48:48;;;;;;;8.55;6.65;;;;;;;6.04;69.61;98220.82;251571;1134;114653;-65
2020/12/25 02:53:50;;;;;;;8.90;7.20;;;;;;;6.05;68.97;98220.75;251491;1135;114560;-65
2020/12/25 02:58:52;;;;;;;9.93;7.45;;;;;;;6.00;68.72;98230.71;251958;1133;114673;-64
2020/12/25 03:03:54;;;;;;;7.60;6.20;;;;;;;5.95;69.92;98222.21;251934;1134;114436;-66
2020/12/25 03:08:57;;;;;;;7.60;6.50;;;;;;;5.90;69.23;98234.77;251583;1134;114631;-66
2020/12/25 03:13:59;;;;;;;8.23;6.05;;;;;;;5.84;69.96;98241.27;251848;1134;114599;-68
2020/12/25 03:19:01;;;;;;;9.90;7.03;;;;;;;5.85;69.19;98248.25;251528;1134;114585;-67
2020/12/25 03:24:04;;;;;;;8.90;6.37;;;;;;;5.90;69.50;98259.38;251695;1133;115469;-66
2020/12/25 03:29:06;;;;;;;10.83;7.03;;;;;;;5.90;70.12;98264.66;251777;1134;114722;-64
2020/12/25 03:34:09;;;;;;;8.65;6.50;;;;;;;5.97;70.11;98267.85;251852;1134;114751;-65
2020/12/25 03:39:11;;;;;;;8.58;5.47;;;;;;;6.02;70.67;98259.70;252062;1135;114375;-65
2020/12/25 03:44:14;;;;;;;7.27;4.93;;;;;;;6.01;69.64;98258.84;251916;1134;114096;-66
2020/12/25 03:49:16;;;;;;;5.42;4.12;;;;;;;5.99;69.23;98268.63;251863;1133;114527;-66
2020/12/25 03:54:18;;;;;;;5.27;3.70;;;;;;;6.02;69.21;98272.90;251987;1132;114467;-69
2020/12/25 03:59:21;;;;;;;4.37;3.17;;;;;;;6.08;68.98;98280.45;251899;1134;114544;-65
2020/12/25 04:04:23;;;;;;;5.55;3.95;;;;;;;6.09;69.30;98288.31;251730;1134;114757;-67
2020/12/25 04:09:26;;;;;;;5.30;3.83;;;;;;;6.10;69.20;98291.80;251990;1134;116000;-68
2020/12/25 04:14:29;;;;;;;5.50;3.90;;;;;;;6.08;68.43;98296.30;251838;1134;115112;-68
2020/12/25 04:19:32;;;;;;;6.03;3.77;;;;;;;6.06;69.40;98296.41;251661;1133;114440;-67
2020/12/25 04:24:34;;;;;;;6.27;3.60;;;;;;;6.07;68.90;98302.53;251488;1134;115901;-66
2020/12/25 04:29:37;;;;;;;6.47;4.50;;;;;;;6.05;68.38;98307.06;251717;1134;114467;-65
2020/12/25 04:34:39;;;;;;;5.03;4.50;;;;;;;6.07;69.25;98329.80;251890;1134;114517;-65
2020/12/25 04:39:42;;;;;;;4.35;3.30;;;;;;;6.09;68.70;98335.01;251676;1134;114387;-67
2020/12/25 04:44:45;;;;;;;6.50;4.30;;;;;;;6.10;69.52;98341.98;252005;1132;114549;-63
2020/12/25 04:49:48;;;;;;;5.70;4.03;;;;;;;6.10;68.55;98345.48;251539;1135;114489;-63
2020/12/25 04:54:50;;;;;;;4.83;3.87;;;;;;;6.08;68.65;98341.20;251869;1133;114214;-62
2020/12/25 04:59:53;;;;;;;4.67;3.80;;;;;;;6.05;68.23;98352.81;251580;1134;114316;-62
2020/12/25 05:04:55;;;;;;;6.43;4.23;;;;;;;6.02;68.08;98352.98;251664;1135;114481;-63
2020/12/25 05:09:57;;;;;;;5.67;3.97;;;;;;;5.99;68.14;98353.14;251725;1137;114497;-63
2020/12/25 05:15:05;;;;;;;4.83;3.80;;;;;;;5.94;68.81;98360.45;251660;1135;114417;-63
2020/12/25 05:20:09;;;;;;;5.65;3.80;;;;;;;5.97;69.36;98356.80;251858;1134;114513;-62
2020/12/25 05:25:11;;;;;;;4.10;3.33;;;;;;;6.03;68.26;98361.75;251573;1134;114147;-63
2020/12/25 05:30:14;;;;;;;5.00;3.80;;;;;;;6.03;68.05;98370.52;251896;1134;114868;-62
2020/12/25 05:35:18;;;;;;;5.87;3.57;;;;;;;6.04;68.77;98379.30;251761;1134;115699;-62
2020/12/25 05:40:20;;;;;;;3.92;3.12;;;;;;;6.00;67.73;98383.05;251874;1134;114306;-62
2020/12/25 05:45:23;;;;;;;4.97;3.83;;;;;;;6.04;68.90;98392.50;251913;1134;114571;-66
2020/12/25 05:50:25;;;;;;;7.07;4.40;;;;;;;6.03;67.82;98393.44;251684;1140;115560;-65
2020/12/25 05:55:29;;;;;;;5.10;4.17;;;;;;;6.04;67.60;98405.70;252039;1134;114526;-66
2020/12/25 06:00:33;;;;;;;5.30;3.60;;;;;;;6.00;68.06;98410.30;252012;1134;114582;-68
2020/12/25 06:05:38;;;;;;;5.67;3.70;;;;;;;5.96;68.51;98416.69;251767;1132;115005;-67
2020/12/25 06:10:43;;;;;;;6.15;4.10;;;;;;;5.98;68.49;98427.16;251636;1135;115794;-65
2020/12/25 06:15:51;;;;;;;6.75;4.50;;;;;;;6.00;68.45;98436.71;251708;1135;114395;-64
2020/12/25 06:21:03;;;;;;;5.30;4.03;;;;;;;5.98;68.27;98443.00;252015;1134;114553;-63
2020/12/25 06:26:06;;;;;;;7.37;4.80;;;;;;;5.93;67.68;98438.83;251938;1134;114370;-66
2020/12/25 06:31:42;;;;;;;6.83;4.70;;;;;;;5.94;67.59;98444.95;251730;1134;114457;-67
2020/12/25 06:36:46;;;;;;;5.85;4.37;;;;;;;5.92;69.01;98463.53;251551;1135;114665;-64
2020/12/25 06:41:49;;;;;;;6.62;4.55;;;;;;;5.91;68.41;98464.45;251943;1134;114735;-65
2020/12/25 06:46:51;;;;;;;6.07;4.47;;;;;;;5.88;68.77;98472.52;251828;1133;114435;-67
2020/12/25 06:51:54;;;;;;;5.57;4.20;;;;;;;5.90;68.35;98469.79;251725;1135;114584;-66
2020/12/25 06:56:57;;;;;;;8.17;3.80;;;;;;;5.95;67.58;98472.24;251930;1135;114489;-65
2020/12/25 07:02:00;;;;;;;6.28;4.53;;;;;;;5.94;67.31;98484.56;251616;1138;114716;-67
2020/12/25 07:07:06;;;;;;;6.40;4.27;;;;;;;5.98;67.77;98493.18;251508;1135;114835;-68
2020/12/25 07:12:13;;;;;;;6.05;4.65;;;;;;;6.00;67.51;98501.89;251753;1134;114520;-67
2020/12/25 07:17:16;;;;;;;6.30;4.13;;;;;;;6.01;68.40;98499.19;251734;1135;114928;-68
2020/12/25 07:22:21;;;;;;;5.80;4.53;;;;;;;6.00;67.68;98505.38;251419;1134;115322;-65
2020/12/25 07:27:23;;;;;;;5.60;4.53;;;;;;;6.00;67.78;98515.09;252023;1132;114454;-64
2020/12/25 07:32:26;;;;;;;6.37;4.30;;;;;;;5.97;68.60;98520.53;251812;1135;114501;-66
2020/12/25 07:37:28;;;;;;;6.30;4.78;;;;;;;5.87;67.38;98531.53;251671;1135;114996;-64
2020/12/25 07:42:30;;;;;;;6.00;4.50;;;;;;;5.89;68.30;98534.11;251734;1134;114318;-63
2020/12/25 07:47:36;;;;;;;6.10;4.47;;;;;;;5.93;68.38;98533.05;251584;1134;114689;-66
2020/12/25 07:52:42;;;;;;;5.97;4.53;;;;;;;5.94;68.26;98540.02;251744;1134;114609;-66
2020/12/25 07:57:47;;;;;;;5.10;4.03;;;;;;;5.95;67.86;98540.91;251923;1134;114759;-65
2020/12/25 08:02:52;;;;;;;5.30;3.80;;;;;;;5.91;67.45;98545.45;251996;1135;114082;-67
2020/12/25 08:07:56;;;;;;;4.83;3.77;;;;;;;5.87;67.42;98535.96;251966;1132;114327;-67
2020/12/25 08:12:58;;;;;;;6.93;3.33;;;;;;;5.84;67.69;98560.76;252091;1136;114416;-67
2020/12/25 08:18:04;;;;;;;4.70;3.70;;;;;;;5.82;67.56;98569.68;251897;1135;114915;-68
2020/12/25 08:23:06;;;;;;;;;;;;;;;5.83;68.41;98571.38;252301;1132;114368;-66
2020/12/25 08:28:08;;;;;;;6.87;3.87;;;;;;;5.81;68.33;98571.47;251478;1135;104340;-67
2020/12/25 08:33:10;;;;;;;4.97;3.70;;;;;;;5.77;68.44;98580.45;251941;1137;115008;-67
2020/12/25 08:38:16;;;;;;;4.20;3.33;;;;;;;5.85;68.26;98586.22;252052;1132;114574;-67
2020/12/25 08:43:19;;;;;;;5.67;3.77;;;;;;;5.90;67.50;98588.63;251978;1134;114648;-70
2020/12/25 08:48:22;;;;;;;7.62;4.05;;;;;;;6.00;68.28;98602.25;251922;1135;114885;-70
2020/12/25 08:53:25;;;;;;;5.67;4.08;;;;;;;6.09;68.17;98607.94;251960;1134;114493;-66
2020/12/25 08:58:27;;;;;;;3.90;3.20;;;;;;;6.11;68.20;98607.84;251788;1134;114756;-69
2020/12/25 09:03:40;;;;;;;4.10;2.80;;;;;;;6.13;67.91;98619.20;251899;1134;114220;-69
2020/12/25 09:08:43;;;;;;;4.53;2.50;;;;;;;6.13;67.04;98608.63;251758;1134;114492;-69
2020/12/25 09:13:47;;;;;;;4.13;2.80;;;;;;;6.15;67.54;98619.98;251983;1135;114651;-69
2020/12/25 09:18:49;;;;;;;6.35;3.77;;;;;;;6.12;66.66;98625.42;251978;1135;114630;-70
2020/12/25 09:23:52;;;;;;;7.37;4.53;;;;;;;6.05;67.46;98624.88;251937;1135;114718;-63
2020/12/25 09:28:54;;;;;;;5.80;3.97;;;;;;;6.03;67.70;98620.59;251986;1134;114382;-64
2020/12/25 09:33:56;;;;;;;7.60;4.28;;;;;;;6.02;66.22;98608.33;251575;1135;114435;-65
2020/12/25 09:38:58;;;;;;;8.35;4.40;;;;;;;6.05;67.86;98619.59;251803;1135;115117;-65
2020/12/25 09:44:01;;;;;;;7.72;5.30;;;;;;;6.07;66.81;98616.86;252006;1133;114520;-67
2020/12/25 09:49:03;;;;;;;7.50;4.63;;;;;;;6.11;67.08;98608.72;251667;1136;114991;-65
2020/12/25 09:54:05;;;;;;;6.87;5.00;;;;;;;6.10;67.13;98606.98;251588;1134;114622;-65
2020/12/25 09:59:08;;;;;;;6.45;4.70;;;;;;;6.12;66.55;98612.21;251818;1135;114868;-64
2020/12/25 10:04:10;;;;;;;6.30;4.43;;;;;;;6.15;67.54;98612.06;252080;1134;114343;-64
2020/12/25 10:09:12;;;;;;;6.33;4.40;;;;;;;6.13;66.43;98614.77;251984;1135;115080;-66
2020/12/25 10:14:15;;;;;;;7.33;4.87;;;;;;;6.13;66.67;98624.48;251989;1136;115443;-64
2020/12/25 10:19:18;;;;;;;5.77;3.93;;;;;;;6.11;66.53;98616.64;251917;1135;114334;-63
2020/12/25 10:24:20;;;;;;;5.12;4.35;;;;;;;6.08;66.65;98622.08;251665;1135;114431;-64
2020/12/25 10:29:22;;;;;;;6.20;3.93;;;;;;;6.08;67.50;98627.36;251818;1135;114410;-64
2020/12/25 10:34:25;;;;;;;5.10;3.90;;;;;;;6.19;67.87;98618.89;251959;1135;114469;-65
2020/12/25 10:39:30;;;;;;;6.60;4.27;;;;;;;6.28;66.79;98622.83;252038;1134;113959;-65
2020/12/25 10:44:32;;;;;;;6.83;5.00;;;;;;;6.39;67.86;98628.44;251740;1134;114656;-64
2020/12/25 10:49:35;;;;;;;6.08;4.85;;;;;;;6.42;66.60;98619.48;252025;1135;114235;-64
2020/12/25 10:54:37;;;;;;;8.23;5.10;;;;;;;6.33;66.82;98634.03;248182;1135;114546;-65
2020/12/25 10:59:40;;;;;;;8.80;4.97;;;;;;;6.27;66.18;98629.91;248697;1133;114554;-65
2020/12/25 11:04:42;;;;;;;6.80;4.70;;;;;;;6.23;67.64;98628.36;251709;1135;114272;-62
2020/12/25 11:09:45;;;;;;;7.65;5.62;;;;;;;6.18;67.38;98638.30;251703;1135;114919;-63
2020/12/25 11:14:48;;;;;;;7.00;5.15;;;;;;;6.17;66.30;98639.23;252050;1134;114221;-63
2020/12/25 11:19:55;;;;;;;7.07;5.03;;;;;;;6.18;67.42;98640.09;251333;1135;114374;-63
2020/12/25 11:24:57;;;;;;;8.10;4.93;;;;;;;6.16;66.55;98633.10;251981;1135;114787;-63
2020/12/25 11:30:00;;;;;;;7.13;4.90;;;;;;;6.13;67.15;98635.89;252231;1136;114675;-64
2020/12/25 11:35:04;;;;;;;7.80;5.30;;;;;;;6.12;67.01;98636.84;251726;1132;114531;-67
2020/12/25 11:40:06;;;;;;;7.03;5.20;;;;;;;6.10;67.37;98643.97;252041;1132;114465;-67
2020/12/25 11:45:09;;;;;;;7.23;5.07;;;;;;;6.09;67.82;98644.06;252105;1135;115055;-67
2020/12/25 11:50:11;;;;;;;7.57;5.60;;;;;;;6.06;66.95;98642.42;251588;1134;114353;-68
2020/12/25 11:55:14;;;;;;;9.18;6.25;;;;;;;6.06;67.52;98639.78;249808;1133;114636;-69
2020/12/25 12:00:16;;;;;;;9.48;6.72;;;;;;;6.06;67.92;98645.06;252058;1135;114372;-69
2020/12/25 12:05:18;;;;;;;8.98;6.20;;;;;;;6.01;68.07;98651.50;252083;1133;114462;-70
2020/12/25 12:10:21;;;;;;;11.17;6.77;;;;;;;5.97;68.15;98645.52;252153;1135;114428;-71
2020/12/25 12:15:24;;;;;;;11.60;7.00;;;;;;;6.00;67.50;98642.72;251707;1132;114773;-71
2020/12/25 12:20:26;;;;;;;12.53;7.40;;;;;;;6.04;68.46;98640.78;251897;1132;114860;-67
2020/12/25 12:25:29;;;;;;;10.07;7.07;;;;;;;6.15;67.89;98656.97;251732;1134;114741;-68
2020/12/25 12:30:31;;;;;;;10.93;7.97;;;;;;;6.18;67.74;98661.22;251751;1135;114660;-67
2020/12/25 12:35:34;;;;;;;10.97;8.73;;;;;;;6.21;67.84;98656.64;251699;1135;114667;-67
2020/12/25 12:40:36;;;;;;;14.15;9.48;;;;;;;6.18;67.92;98667.36;251910;1134;114672;-66
2020/12/25 12:45:39;;;;;;;14.83;9.87;;;;;;;6.13;67.72;98661.47;251796;1135;114574;-66
2020/12/25 12:50:41;;;;;;;14.20;9.33;;;;;;;6.09;68.83;98683.69;251811;1135;114599;-67
2020/12/25 12:55:44;;;;;;;17.77;10.35;;;;;;;6.02;68.47;98669.92;251889;1134;114609;-67
2020/12/25 13:00:47;;;;;;;17.47;10.03;;;;;;;6.06;69.19;98683.84;251887;1133;115010;-67
2020/12/25 13:05:51;;;;;;;16.12;11.73;;;;;;;6.07;69.08;98677.61;251718;1134;114717;-66
2020/12/25 13:10:54;;;;;;;14.47;10.23;;;;;;;6.09;69.38;98681.05;251998;1134;114892;-66
2020/12/25 13:15:57;;;;;;;16.63;10.67;;;;;;;6.10;68.44;98688.88;251979;1134;114933;-67
2020/12/25 13:20:59;;;;;;;15.93;9.78;;;;;;;6.08;68.77;98687.23;252055;1135;114749;-67
2020/12/25 13:26:01;;;;;;;13.53;8.73;;;;;;;6.04;68.19;98697.10;251748;1135;114575;-67
2020/12/25 13:31:04;;;;;;;10.48;7.75;;;;;;;5.99;69.24;98714.98;252011;1134;117161;-67
2020/12/25 13:36:06;;;;;;;10.30;6.53;;;;;;;5.97;69.59;98715.97;251717;1134;114482;-66
2020/12/25 13:41:10;;;;;;;11.90;5.83;;;;;;;5.92;68.03;98719.70;251792;1135;114531;-67
2020/12/25 13:46:14;;;;;;;8.33;4.62;;;;;;;5.87;68.68;98721.66;251602;1135;114520;-67
2020/12/25 13:51:25;;;;;;;6.35;3.83;;;;;;;5.88;67.97;98728.67;251607;1134;114738;-67
2020/12/25 13:56:28;;;;;;;8.58;5.25;;;;;;;5.89;68.21;98721.59;251865;1135;114709;-66
2020/12/25 14:01:30;;;;;;;6.90;4.43;;;;;;;5.89;68.22;98733.02;251855;1135;114282;-67
2020/12/25 14:06:35;;;;;;;8.40;4.75;;;;;;;5.88;68.32;98736.59;251770;1133;114256;-67
2020/12/25 14:11:37;;;;;;;;;;;;;;;5.86;68.62;98732.31;251857;1135;115140;-67
2020/12/25 14:16:40;;;;;;;7.57;4.97;;;;;;;5.80;68.32;98735.23;251698;1133;102075;-66
2020/12/25 14:21:42;;;;;;;8.68;5.97;;;;;;;5.74;68.50;98735.52;252015;1135;114333;-67
2020/12/25 14:26:47;;;;;;;9.43;6.27;;;;;;;5.72;69.10;98742.67;251769;1134;114995;-67
2020/12/25 14:31:50;;;;;;;11.67;7.10;;;;;;;5.71;68.50;98757.66;251521;1135;114438;-67
2020/12/25 14:36:52;;;;;;;13.98;8.30;;;;;;;5.71;68.44;98757.66;251904;1134;114576;-67
2020/12/25 14:41:54;;;;;;;14.43;8.17;;;;;;;5.77;68.43;98769.70;251733;1134;114908;-67
2020/12/25 14:46:57;;;;;;;15.90;9.18;;;;;;;5.82;69.60;98776.48;251954;1133;114734;-67
2020/12/25 14:51:59;;;;;;;13.07;8.10;;;;;;;5.86;68.97;98785.12;251695;1135;114620;-67
2020/12/25 14:57:02;;;;;;;13.80;8.35;;;;;;;5.86;67.68;98787.77;251927;1135;115070;-67
2020/12/25 15:02:04;;;;;;;15.05;8.20;;;;;;;5.83;68.16;98793.19;251519;1135;114756;-67
2020/12/25 15:07:07;;;;;;;12.50;7.47;;;;;;;5.82;68.11;98805.53;251916;1135;115175;-67
2020/12/25 15:12:09;;;;;;;11.57;7.22;;;;;;;5.75;68.13;98804.11;252039;1134;114745;-67
2020/12/25 15:17:11;;;;;;;12.20;7.10;;;;;;;5.72;68.09;98806.89;251755;1134;114630;-67
2020/12/25 15:22:14;;;;;;;13.70;7.30;;;;;;;5.69;68.17;98807.02;251559;1135;114547;-67
2020/12/25 15:27:16;;;;;;;14.10;7.60;;;;;;;5.69;68.12;98812.30;251834;1132;114558;-67
2020/12/25 15:32:19;;;;;;;15.90;8.37;;;;;;;5.63;67.98;98813.43;251796;1134;114539;-67
2020/12/25 15:37:21;;;;;;;12.45;6.97;;;;;;;5.57;67.92;98812.85;251722;1135;114588;-67
2020/12/25 15:42:23;;;;;;;11.67;6.50;;;;;;;5.48;66.90;98829.13;251745;1134;114534;-67
2020/12/25 15:47:26;;;;;;;11.05;6.03;;;;;;;5.54;67.84;98820.94;251718;1134;114679;-66
2020/12/25 15:52:31;;;;;;;12.82;6.40;;;;;;;5.56;67.04;98819.06;251892;1134;115396;-67
2020/12/25 15:57:34;;;;;;;10.27;5.47;;;;;;;5.58;67.26;98823.36;251479;1133;114440;-66
2020/12/25 16:02:41;;;;;;;10.15;5.28;;;;;;;5.58;66.80;98830.42;251907;1133;114600;-66
2020/12/25 16:07:45;;;;;;;9.63;5.80;;;;;;;5.53;66.02;98827.12;251721;1135;114614;-66
2020/12/25 16:12:47;;;;;;;11.07;5.63;;;;;;;5.46;65.40;98837.94;252106;1134;116006;-67
2020/12/25 16:17:50;;;;;;;11.40;6.17;;;;;;;5.38;66.25;98852.42;252006;1134;114668;-67
2020/12/25 16:22:53;;;;;;;10.73;5.77;;;;;;;5.28;65.38;98854.59;251954;1134;114221;-67
2020/12/25 16:27:55;;;;;;;9.68;4.97;;;;;;;5.18;65.71;98853.28;251524;1135;114610;-66
2020/12/25 16:32:58;;;;;;;9.37;4.93;;;;;;;5.10;65.83;98865.95;251712;1135;115052;-66
2020/12/25 16:38:00;;;;;;;7.90;4.28;;;;;;;5.06;65.01;98864.34;251684;1135;114851;-66
2020/12/25 16:43:03;;;;;;;7.92;4.58;;;;;;;5.02;64.62;98868.04;251927;1133;114605;-66
2020/12/25 16:48:06;;;;;;;9.47;4.83;;;;;;;5.01;65.30;98867.19;251847;1135;114460;-66
2020/12/25 16:53:08;;;;;;;8.15;4.75;;;;;;;4.98;65.14;98870.80;251969;1133;114394;-66
2020/12/25 16:58:10;;;;;;;9.37;5.23;;;;;;;4.98;64.71;98889.27;251087;1133;114320;-67
2020/12/25 17:03:13;;;;;;;11.07;5.90;;;;;;;4.93;64.06;98890.40;251476;1135;115578;-67
2020/12/25 17:08:16;;;;;;;10.00;5.65;;;;;;;4.96;63.94;98901.67;251945;1133;114916;-67
2020/12/25 17:13:19;;;;;;;13.13;6.70;;;;;;;4.95;63.89;98897.30;252084;1139;114555;-67
2020/12/25 17:18:21;;;;;;;14.00;7.07;;;;;;;4.95;64.60;98907.84;252169;1134;115089;-67
2020/12/25 17:23:24;;;;;;;14.70;7.00;;;;;;;4.92;64.58;98904.48;252309;1134;115003;-67
2020/12/25 17:28:26;;;;;;;17.03;8.20;;;;;;;5.00;64.95;98906.83;252318;1134;115038;-68
2020/12/25 17:33:29;;;;;;;15.55;7.62;;;;;;;5.09;64.11;98904.63;252023;1134;114788;-67
2020/12/25 17:38:31;;;;;;;14.43;6.93;;;;;;;5.17;63.98;98920.16;252070;1134;114705;-67
2020/12/25 17:43:38;;;;;;;15.53;6.97;;;;;;;5.24;64.28;98920.77;252131;1142;114554;-67
2020/12/25 17:48:44;;;;;;;13.57;7.40;;;;;;;5.26;64.21;98924.17;249684;1135;115426;-65
2020/12/25 17:54:01;;;;;;;15.77;7.47;;;;;;;5.23;64.16;98925.19;251295;1134;114852;-66
2020/12/25 17:59:05;;;;;;;14.28;7.00;;;;;;;5.21;64.41;98932.30;251677;1135;114610;-66
2020/12/25 18:04:07;;;;;;;11.80;5.67;;;;;;;5.19;63.32;98923.58;252214;1134;114735;-67
2020/12/25 18:09:09;;;;;;;13.20;6.22;;;;;;;5.18;63.98;98935.91;252164;1134;114670;-67
2020/12/25 18:14:12;;;;;;;9.93;5.80;;;;;;;5.14;63.42;98944.03;251963;1133;114977;-67
2020/12/25 18:19:16;;;;;;;14.30;7.40;;;;;;;5.13;63.40;98934.37;251816;1134;114183;-66
2020/12/25 18:24:28;;;;;;;11.53;7.00;;;;;;;5.11;63.25;98937.09;248598;1134;115789;-68
2020/12/25 18:29:31;;;;;;;13.67;7.10;;;;;;;5.12;63.97;98940.58;251442;1134;114699;-67
2020/12/25 18:34:33;;;;;;;14.97;8.20;;;;;;;5.12;64.45;98951.98;250844;1134;114604;-67
2020/12/25 18:39:37;;;;;;;12.30;7.43;;;;;;;5.12;63.86;98948.49;252087;1134;114789;-68
2020/12/25 18:44:42;;;;;;;15.47;8.53;;;;;;;5.07;64.19;98951.33;251850;1133;114639;-68
2020/12/25 18:49:45;;;;;;;16.93;8.43;;;;;;;5.03;63.41;98951.50;252057;1135;114662;-68
2020/12/25 18:54:48;;;;;;;13.33;7.83;;;;;;;5.02;63.06;98957.70;252050;1133;114650;-68
2020/12/25 18:59:51;;;;;;;12.13;6.65;;;;;;;5.01;63.05;98966.55;252195;1133;114882;-68
2020/12/25 19:04:54;;;;;;;9.60;5.80;;;;;;;5.02;63.22;98960.34;252029;1135;114545;-67
2020/12/25 19:09:57;;;;;;;8.07;4.57;;;;;;;5.04;62.27;98967.28;252076;1134;114344;-68
2020/12/25 19:14:59;;;;;;;8.55;4.50;;;;;;;5.04;61.84;98977.83;251223;1135;114584;-67
2020/12/25 19:20:04;;;;;;;12.70;7.03;;;;;;;5.02;62.78;98981.44;252003;1135;114952;-67
2020/12/25 19:25:14;;;;;;;16.07;9.20;;;;;;;4.96;62.84;98986.06;252135;1135;114596;-66
2020/12/25 19:30:16;;;;;;;23.10;13.60;;;;;;;4.91;62.37;98997.70;252148;1134;114790;-66
2020/12/25 19:35:22;;;;;;;21.97;12.47;;;;;;;4.84;63.33;98999.72;250469;1134;114818;-68
2020/12/25 19:40:25;;;;;;;23.80;14.00;;;;;;;4.83;63.14;99008.55;249960;1134;115497;-67
2020/12/25 19:45:27;;;;;;;23.03;13.57;;;;;;;4.84;64.32;99007.63;251925;1134;114868;-67
2020/12/25 19:50:40;;;;;;;24.10;14.10;;;;;;;4.79;63.31;99001.69;250111;1134;114570;-67
2020/12/25 19:55:45;;;;;;;28.63;14.50;;;;;;;4.79;64.00;99006.97;251804;1134;115002;-67
2020/12/25 20:00:50;;;;;;;26.60;13.05;;;;;;;4.79;63.97;99004.33;250686;1134;114636;-64
2020/12/25 20:05:56;;;;;;;24.33;11.90;;;;;;;4.81;63.70;99018.29;250435;1134;115461;-66
2020/12/25 20:10:59;;;;;;;22.87;12.00;;;;;;;4.83;64.02;99015.61;251643;1134;114915;-66
2020/12/25 20:16:04;;;;;;;21.37;11.27;;;;;;;4.89;64.23;99024.14;251189;1134;207915;-67
2020/12/25 20:21:10;;;;;;;16.97;9.33;;;;;;;4.87;64.71;99011.92;251051;1134;114868;-66
2020/12/25 20:26:15;;;;;;;16.97;9.95;;;;;;;4.88;63.81;99014.48;251643;1135;116032;-67
2020/12/25 20:31:18;;;;;;;16.48;9.13;;;;;;;4.86;63.55;99018.13;251886;1134;114358;-66
2020/12/25 20:36:23;;;;;;;16.17;9.05;;;;;;;4.81;64.55;99023.56;252179;1134;114127;-66
2020/12/25 20:41:25;;;;;;;17.45;8.95;;;;;;;4.75;64.47;99039.61;251706;1135;114564;-66
2020/12/25 20:46:28;;;;;;;21.33;9.33;;;;;;;4.71;64.37;99038.88;251891;1133;114628;-66
2020/12/25 20:51:31;;;;;;;15.35;8.65;;;;;;;4.67;64.48;99041.69;251876;1134;114757;-67
2020/12/25 20:56:33;;;;;;;14.77;7.77;;;;;;;4.63;64.06;99040.95;249796;1134;114761;-65
2020/12/25 21:01:36;;;;;;;15.80;8.48;;;;;;;4.63;63.89;99051.49;251126;1134;115575;-67
2020/12/25 21:06:41;;;;;;;16.23;8.73;;;;;;;4.65;63.91;99052.30;250740;1132;114821;-67
2020/12/25 21:11:45;;;;;;;14.47;7.70;;;;;;;4.64;63.62;99062.89;251927;1133;114641;-68
2020/12/25 21:17:01;;;;;;;16.48;8.83;;;;;;;4.59;63.26;99075.39;252013;1136;114654;-68
2020/12/25 21:22:04;;;;;;;13.30;7.25;;;;;;;4.51;62.96;99084.41;251936;1132;114114;-68
2020/12/25 21:27:06;;;;;;;15.77;7.97;;;;;;;4.46;63.23;99089.02;251601;1133;114707;-65
2020/12/25 21:32:19;;;;;;;14.23;8.07;;;;;;;4.42;64.12;99089.19;250940;1135;114860;-67
2020/12/25 21:37:21;;;;;;;14.60;8.67;;;;;;;4.41;63.84;99093.57;251570;1134;114562;-66
2020/12/25 21:42:24;;;;;;;15.70;8.37;;;;;;;4.41;63.30;99092.72;247851;1134;114563;-66
2020/12/25 21:47:27;;;;;;;14.70;8.18;;;;;;;4.39;63.54;99098.06;250303;1134;115181;-65
2020/12/25 21:52:37;;;;;;;16.97;8.47;;;;;;;4.35;63.37;99104.36;251105;1132;115941;-66
2020/12/25 21:57:43;;;;;;;18.63;8.13;;;;;;;4.41;63.77;99093.57;251358;1133;114657;-65
2020/12/25 22:02:45;;;;;;;13.77;7.37;;;;;;;4.45;63.15;99099.59;251831;1134;114854;-65
2020/12/25 22:07:50;;;;;;;13.87;7.20;;;;;;;4.45;63.07;99097.84;251542;1134;114926;-66
2020/12/25 22:12:52;;;;;;;11.65;6.12;;;;;;;4.41;63.11;99098.84;251576;1134;114641;-66
2020/12/25 22:17:55;;;;;;;12.13;6.70;;;;;;;4.45;63.57;99095.20;251837;1134;115357;-66
2020/12/25 22:22:58;;;;;;;9.70;5.55;;;;;;;4.39;63.33;99102.47;251897;1133;114890;-65
2020/12/25 22:28:00;;;;;;;10.10;5.00;;;;;;;4.33;62.72;99100.05;251785;1134;113999;-68
2020/12/25 22:33:02;;;;;;;9.85;5.53;;;;;;;4.37;63.23;99093.75;251544;1132;114518;-67
2020/12/25 22:38:05;;;;;;;8.15;4.87;;;;;;;4.35;62.27;99093.82;251868;1134;114062;-67
2020/12/25 22:43:08;;;;;;;8.60;4.53;;;;;;;4.33;62.61;99090.36;251669;1135;114210;-66
2020/12/25 22:48:14;;;;;;;8.20;4.75;;;;;;;4.34;61.74;99092.08;251903;1134;114319;-66
2020/12/25 22:53:17;;;;;;;8.37;4.73;;;;;;;4.31;62.27;99086.91;251549;1133;114687;-66
2020/12/25 22:58:19;;;;;;;8.55;5.05;;;;;;;4.32;62.24;99099.20;251858;1132;114619;-68
2020/12/25 23:03:28;;;;;;;8.68;4.95;;;;;;;4.31;62.04;99102.72;251757;1134;115526;-66
2020/12/25 23:08:30;;;;;;;9.20;4.97;;;;;;;4.22;61.84;99105.70;251883;1135;114306;-66
2020/12/25 23:13:32;;;;;;;11.97;6.25;;;;;;;4.13;62.42;99103.38;251942;1132;114492;-67
2020/12/25 23:18:35;;;;;;;12.87;6.30;;;;;;;4.05;62.03;99122.09;251704;1134;115871;-66
2020/12/25 23:23:37;;;;;;;14.07;6.90;;;;;;;3.98;63.21;99120.58;251832;1135;114677;-66